createdAt,value
2017-07-31T00:01:23.593Z,18.90
2017-07-31T00:03:57.578Z,18.90
2017-07-31T00:06:26.240Z,18.90
2017-07-31T00:08:54.742Z,18.80
2017-07-31T00:11:23.267Z,18.90
2017-07-31T00:13:51.796Z,18.90
2017-07-31T00:16:20.436Z,18.90
2017-07-31T00:18:49.083Z,19.00
2017-07-31T00:21:17.781Z,18.90
2017-07-31T00:23:46.469Z,18.90
2017-07-31T00:26:15.045Z,18.90
2017-07-31T00:28:44.460Z,18.80
2017-07-31T00:31:13.287Z,18.80
2017-07-31T00:33:42.071Z,18.80
2017-07-31T00:36:11.365Z,18.80
2017-07-31T00:38:39.982Z,18.70
2017-07-31T00:41:11.865Z,18.60
2017-07-31T00:43:42.954Z,18.70
2017-07-31T00:46:17.718Z,18.70
2017-07-31T00:48:46.422Z,18.70
2017-07-31T00:51:17.979Z,18.70
2017-07-31T00:53:47.626Z,18.70
2017-07-31T00:56:17.184Z,18.60
2017-07-31T00:58:46.633Z,18.70
2017-07-31T01:01:15.238Z,18.70
2017-07-31T01:03:44.826Z,18.60
2017-07-31T01:06:13.401Z,18.70
2017-07-31T01:08:45.806Z,18.60
2017-07-31T01:11:15.124Z,18.60
2017-07-31T01:13:43.702Z,18.50
2017-07-31T01:16:12.514Z,18.50
2017-07-31T01:18:41.819Z,18.60
2017-07-31T01:21:10.418Z,18.50
2017-07-31T01:26:26.635Z,18.50
2017-07-31T01:28:55.819Z,18.40
2017-07-31T01:31:26.360Z,18.30
2017-07-31T01:33:55.720Z,18.20
2017-07-31T01:36:25.887Z,18.10
2017-07-31T01:38:54.497Z,17.90
2017-07-31T01:41:23.833Z,18.00
2017-07-31T01:43:53.137Z,17.90
2017-07-31T01:46:22.900Z,17.90
2017-07-31T01:48:58.237Z,17.90
2017-07-31T01:51:26.963Z,17.90
2017-07-31T01:54:00.943Z,18.10
2017-07-31T01:56:28.994Z,18.10
2017-07-31T01:58:58.391Z,18.10
2017-07-31T02:01:26.916Z,18.30
2017-07-31T02:03:55.483Z,18.30
2017-07-31T02:06:26.031Z,18.40
2017-07-31T02:08:55.227Z,18.40
2017-07-31T02:11:23.827Z,18.30
2017-07-31T02:13:52.418Z,18.40
2017-07-31T02:16:23.340Z,18.50
2017-07-31T02:18:52.008Z,18.60
2017-07-31T02:21:21.614Z,18.50
2017-07-31T02:23:51.150Z,18.50
2017-07-31T02:26:19.755Z,18.40
2017-07-31T02:28:48.942Z,18.40
2017-07-31T02:31:19.299Z,18.30
2017-07-31T02:33:48.267Z,18.40
2017-07-31T02:36:19.521Z,18.30
2017-07-31T02:38:48.657Z,18.30
2017-07-31T02:41:17.210Z,18.20
2017-07-31T02:43:45.845Z,18.20
2017-07-31T02:48:50.754Z,18.20
2017-07-31T02:51:19.394Z,18.10
2017-07-31T02:53:47.892Z,18.10
2017-07-31T02:56:16.478Z,18.00
2017-07-31T02:58:46.311Z,17.90
2017-07-31T03:01:14.839Z,18.00
2017-07-31T03:03:44.066Z,18.10
2017-07-31T03:06:12.567Z,18.10
2017-07-31T03:08:41.211Z,18.10
2017-07-31T03:11:09.795Z,18.20
2017-07-31T03:13:39.759Z,18.10
2017-07-31T03:16:25.743Z,18.10
2017-07-31T03:18:55.282Z,18.10
2017-07-31T03:21:23.820Z,18.00
2017-07-31T03:23:54.463Z,18.00
2017-07-31T03:26:41.376Z,18.00
2017-07-31T03:29:10.385Z,18.00
2017-07-31T03:31:39.216Z,17.90
2017-07-31T03:34:08.013Z,17.70
2017-07-31T03:36:36.591Z,17.70
2017-07-31T03:39:19.286Z,17.90
2017-07-31T03:41:49.350Z,18.00
2017-07-31T03:44:18.040Z,18.10
2017-07-31T03:46:46.728Z,18.10
2017-07-31T03:49:21.317Z,18.10
2017-07-31T03:51:53.722Z,18.10
2017-07-31T03:54:23.623Z,18.10
2017-07-31T03:56:55.088Z,18.10
2017-07-31T03:59:24.626Z,18.10
2017-07-31T04:01:53.614Z,18.00
2017-07-31T04:04:22.225Z,18.00
2017-07-31T04:06:51.827Z,18.00
2017-07-31T04:09:21.395Z,18.10
2017-07-31T04:11:51.049Z,18.10
2017-07-31T04:14:22.483Z,18.10
2017-07-31T04:17:03.184Z,18.10
2017-07-31T04:19:40.544Z,18.20
2017-07-31T04:22:09.882Z,18.20
2017-07-31T04:24:38.281Z,18.20
2017-07-31T04:29:46.172Z,18.20
2017-07-31T04:32:17.116Z,18.20
2017-07-31T04:34:47.403Z,18.20
2017-07-31T04:39:50.829Z,18.40
2017-07-31T04:45:19.994Z,18.70
2017-07-31T04:47:48.916Z,18.70
2017-07-31T04:50:18.519Z,18.90
2017-07-31T04:52:47.447Z,19.00
2017-07-31T04:57:52.074Z,19.20
2017-07-31T05:00:21.293Z,19.30
2017-07-31T05:02:49.850Z,19.30
2017-07-31T05:05:18.433Z,19.40
2017-07-31T05:07:48.828Z,19.50
2017-07-31T05:10:17.482Z,19.50
2017-07-31T05:12:45.668Z,19.70
2017-07-31T05:15:14.771Z,19.90
2017-07-31T05:17:44.019Z,19.90
2017-07-31T05:20:12.610Z,19.90
2017-07-31T05:22:40.861Z,20.10
2017-07-31T05:25:09.450Z,20.20
2017-07-31T05:27:39.064Z,20.30
2017-07-31T05:30:09.883Z,20.50
2017-07-31T05:32:38.459Z,20.70
2017-07-31T05:35:07.012Z,20.70
2017-07-31T05:37:35.506Z,20.80
2017-07-31T05:40:04.115Z,21.00
2017-07-31T05:42:32.768Z,21.10
2017-07-31T05:45:02.161Z,21.30
2017-07-31T05:47:30.741Z,21.20
2017-07-31T05:49:59.263Z,21.30
2017-07-31T05:52:27.800Z,21.30
2017-07-31T05:54:56.466Z,21.50
2017-07-31T05:57:25.219Z,21.80
2017-07-31T05:59:53.709Z,21.90
2017-07-31T06:02:23.020Z,22.10
2017-07-31T06:04:51.701Z,22.20
2017-07-31T06:07:20.326Z,22.30
2017-07-31T06:09:48.856Z,22.40
2017-07-31T06:12:17.478Z,22.60
2017-07-31T06:14:45.978Z,22.90
2017-07-31T06:17:15.026Z,23.00
2017-07-31T06:19:43.654Z,23.40
2017-07-31T06:22:13.673Z,23.90
2017-07-31T06:24:42.237Z,23.90
2017-07-31T06:27:10.876Z,24.00
2017-07-31T06:32:12.995Z,24.70
2017-07-31T06:34:41.677Z,24.80
2017-07-31T06:37:10.515Z,25.00
2017-07-31T06:39:42.577Z,25.40
2017-07-31T06:42:53.632Z,25.80
2017-07-31T06:45:22.232Z,25.90
2017-07-31T06:47:50.761Z,26.40
2017-07-31T06:50:19.249Z,26.50
2017-07-31T06:52:48.334Z,27.20
2017-07-31T06:55:16.926Z,27.10
2017-07-31T06:57:45.542Z,27.50
2017-07-31T07:00:14.138Z,27.60
2017-07-31T07:02:42.679Z,27.90
2017-07-31T07:05:10.990Z,28.30
2017-07-31T07:07:39.511Z,29.30
2017-07-31T07:10:07.990Z,29.60
2017-07-31T07:12:36.474Z,29.80
2017-07-31T07:15:05.020Z,29.70
2017-07-31T07:17:34.105Z,30.10
2017-07-31T07:20:02.617Z,29.80
2017-07-31T07:22:31.747Z,30.50
2017-07-31T07:25:00.248Z,30.50
2017-07-31T07:27:28.769Z,31.10
2017-07-31T07:29:57.840Z,31.70
2017-07-31T07:32:26.394Z,32.20
2017-07-31T07:34:55.187Z,31.80
2017-07-31T07:37:23.830Z,32.20
2017-07-31T07:39:52.295Z,32.00
2017-07-31T07:42:20.780Z,33.10
2017-07-31T07:44:49.097Z,33.90
2017-07-31T07:47:17.780Z,34.50
2017-07-31T07:49:46.447Z,35.50
2017-07-31T07:52:14.804Z,35.80
2017-07-31T07:54:43.386Z,35.80
2017-07-31T07:57:13.245Z,35.80
2017-07-31T07:59:41.765Z,35.90
2017-07-31T08:02:10.494Z,36.10
2017-07-31T08:04:39.029Z,37.30
2017-07-31T08:07:07.583Z,37.30
2017-07-31T08:09:36.073Z,37.40
2017-07-31T08:12:04.682Z,37.50
2017-07-31T08:14:32.863Z,38.00
2017-07-31T08:17:01.464Z,38.20
2017-07-31T08:19:29.951Z,37.90
2017-07-31T08:21:58.514Z,38.10
2017-07-31T08:24:26.978Z,37.50
2017-07-31T08:26:55.493Z,37.70
2017-07-31T08:29:24.113Z,38.40
2017-07-31T08:31:52.587Z,38.30
2017-07-31T08:34:21.042Z,39.30
2017-07-31T08:36:49.570Z,39.50
2017-07-31T08:39:18.127Z,39.10
2017-07-31T08:41:46.666Z,39.20
2017-07-31T08:44:15.170Z,38.20
2017-07-31T08:46:43.690Z,38.50
2017-07-31T08:49:12.174Z,38.80
2017-07-31T08:51:40.744Z,38.50
2017-07-31T08:54:09.472Z,39.20
2017-07-31T08:56:38.674Z,39.50
2017-07-31T08:59:07.276Z,39.50
2017-07-31T09:01:35.783Z,38.60
2017-07-31T09:04:04.334Z,38.80
2017-07-31T09:06:32.826Z,38.70
2017-07-31T09:09:01.382Z,38.80
2017-07-31T09:11:29.897Z,38.80
2017-07-31T09:13:58.373Z,38.60
2017-07-31T09:16:26.909Z,39.40
2017-07-31T09:18:55.368Z,39.00
2017-07-31T09:21:23.882Z,39.00
2017-07-31T09:23:52.334Z,38.60
2017-07-31T09:26:20.530Z,39.20
2017-07-31T09:28:49.075Z,39.40
2017-07-31T09:31:17.614Z,39.20
2017-07-31T09:33:46.148Z,39.50
2017-07-31T09:36:14.698Z,39.70
2017-07-31T09:38:43.246Z,39.50
2017-07-31T09:41:11.799Z,38.40
2017-07-31T09:43:40.305Z,38.90
2017-07-31T09:46:08.785Z,39.60
2017-07-31T09:48:37.301Z,39.00
2017-07-31T09:51:05.859Z,39.90
2017-07-31T09:53:34.357Z,39.50
2017-07-31T09:56:02.823Z,39.90
2017-07-31T09:58:31.355Z,40.50
2017-07-31T10:00:59.813Z,40.40
2017-07-31T10:03:28.316Z,39.80
2017-07-31T10:05:57.133Z,39.80
2017-07-31T10:08:25.685Z,39.90
2017-07-31T10:10:54.138Z,39.30
2017-07-31T10:13:22.654Z,39.60
2017-07-31T10:15:51.123Z,39.40
2017-07-31T10:18:19.557Z,38.80
2017-07-31T10:20:48.076Z,38.40
2017-07-31T10:23:16.506Z,38.90
2017-07-31T10:25:44.970Z,38.90
2017-07-31T10:28:14.246Z,39.10
2017-07-31T10:30:42.670Z,39.10
2017-07-31T10:33:11.080Z,39.00
2017-07-31T10:35:39.558Z,39.00
2017-07-31T10:38:07.998Z,39.20
2017-07-31T10:40:36.442Z,38.80
2017-07-31T10:43:04.952Z,38.20
2017-07-31T10:45:33.358Z,39.20
2017-07-31T10:48:01.829Z,39.60
2017-07-31T10:50:30.278Z,38.90
2017-07-31T10:52:58.759Z,39.20
2017-07-31T10:55:27.213Z,38.80
2017-07-31T10:57:56.033Z,39.30
2017-07-31T11:00:24.429Z,38.60
2017-07-31T11:02:52.833Z,39.20
2017-07-31T11:05:22.065Z,38.40
2017-07-31T11:07:50.509Z,38.30
2017-07-31T11:10:18.932Z,38.40
2017-07-31T11:12:47.395Z,38.60
2017-07-31T11:15:15.829Z,38.00
2017-07-31T11:17:44.272Z,37.60
2017-07-31T11:20:12.701Z,37.60
2017-07-31T11:22:41.122Z,37.80
2017-07-31T11:25:09.594Z,37.80
2017-07-31T11:27:38.068Z,37.40
2017-07-31T11:30:06.503Z,37.80
2017-07-31T11:32:34.937Z,38.40
2017-07-31T11:35:03.572Z,38.30
2017-07-31T11:37:32.037Z,38.00
2017-07-31T11:40:00.447Z,38.20
2017-07-31T11:42:28.919Z,38.10
2017-07-31T11:44:57.399Z,37.90
2017-07-31T11:47:25.862Z,37.90
2017-07-31T11:49:54.369Z,38.00
2017-07-31T11:52:23.019Z,37.80
2017-07-31T11:54:51.671Z,38.00
2017-07-31T11:57:20.173Z,38.00
2017-07-31T11:59:48.612Z,38.00
2017-07-31T12:02:17.058Z,38.30
2017-07-31T12:04:45.553Z,37.30
2017-07-31T12:07:13.991Z,36.90
2017-07-31T12:09:42.450Z,36.50
2017-07-31T12:12:11.726Z,36.20
2017-07-31T12:14:40.169Z,36.20
2017-07-31T12:17:08.582Z,35.90
2017-07-31T12:19:37.122Z,36.20
2017-07-31T12:22:05.850Z,36.20
2017-07-31T12:24:34.336Z,36.60
2017-07-31T12:27:03.019Z,36.10
2017-07-31T12:29:31.747Z,35.70
2017-07-31T12:32:00.215Z,35.80
2017-07-31T12:34:28.729Z,35.50
2017-07-31T12:36:57.235Z,35.60
2017-07-31T12:39:25.842Z,34.90
2017-07-31T12:41:54.616Z,35.10
2017-07-31T12:44:23.084Z,35.40
2017-07-31T12:46:51.398Z,35.20
2017-07-31T12:49:19.906Z,35.30
2017-07-31T12:51:48.365Z,35.10
2017-07-31T12:54:16.888Z,35.20
2017-07-31T12:56:45.430Z,35.00
2017-07-31T12:59:13.911Z,34.90
2017-07-31T13:01:42.413Z,34.50
2017-07-31T13:04:10.940Z,34.50
2017-07-31T13:06:39.432Z,34.80
2017-07-31T13:09:07.969Z,35.20
2017-07-31T13:11:36.511Z,35.40
2017-07-31T13:14:05.227Z,35.10
2017-07-31T13:16:33.734Z,35.20
2017-07-31T13:19:02.256Z,35.10
2017-07-31T13:21:30.777Z,34.50
2017-07-31T13:23:59.277Z,34.40
2017-07-31T13:26:28.577Z,34.50
2017-07-31T13:28:57.279Z,34.20
2017-07-31T13:31:25.981Z,34.50
2017-07-31T13:33:54.507Z,34.30
2017-07-31T13:36:23.250Z,34.70
2017-07-31T13:38:51.751Z,34.70
2017-07-31T13:41:20.474Z,34.60
2017-07-31T13:43:48.959Z,34.60
2017-07-31T13:46:17.464Z,34.30
2017-07-31T13:48:45.966Z,34.50
2017-07-31T13:51:14.467Z,34.50
2017-07-31T13:53:42.983Z,34.00
2017-07-31T13:56:11.242Z,33.90
2017-07-31T13:58:39.743Z,33.90
2017-07-31T14:01:08.232Z,33.70
2017-07-31T14:03:36.720Z,33.70
2017-07-31T14:06:05.185Z,33.70
2017-07-31T14:08:33.662Z,33.50
2017-07-31T14:11:02.160Z,33.40
2017-07-31T14:13:30.632Z,33.40
2017-07-31T14:15:59.093Z,33.40
2017-07-31T14:18:27.579Z,33.60
2017-07-31T14:20:56.046Z,33.50
2017-07-31T14:23:24.496Z,33.40
2017-07-31T14:25:53.120Z,33.10
2017-07-31T14:28:21.615Z,33.00
2017-07-31T14:30:50.124Z,32.90
2017-07-31T14:33:18.590Z,33.40
2017-07-31T14:35:47.073Z,33.20
2017-07-31T14:38:15.521Z,33.00
2017-07-31T14:40:44.075Z,33.20
2017-07-31T14:43:12.573Z,33.00
2017-07-31T14:45:41.037Z,33.10
2017-07-31T14:48:09.741Z,33.20
2017-07-31T14:50:38.227Z,33.50
2017-07-31T14:53:06.712Z,33.10
2017-07-31T14:55:35.195Z,33.00
2017-07-31T14:58:03.719Z,32.70
2017-07-31T15:00:32.165Z,32.80
2017-07-31T15:03:00.644Z,32.60
2017-07-31T15:05:29.120Z,32.60
2017-07-31T15:07:57.770Z,32.60
2017-07-31T15:10:26.367Z,32.50
2017-07-31T15:12:54.865Z,32.60
2017-07-31T15:15:23.725Z,32.60
2017-07-31T15:17:52.625Z,32.60
2017-07-31T15:20:21.113Z,32.60
2017-07-31T15:22:49.692Z,32.40
2017-07-31T15:25:18.273Z,32.40
2017-07-31T15:27:46.744Z,32.20
2017-07-31T15:30:15.278Z,32.30
2017-07-31T15:32:43.821Z,32.30
2017-07-31T15:35:12.372Z,32.10
2017-07-31T15:37:40.882Z,32.00
2017-07-31T15:40:09.404Z,32.00
2017-07-31T15:42:37.886Z,31.90
2017-07-31T15:45:06.349Z,31.90
2017-07-31T15:47:34.857Z,31.70
2017-07-31T15:50:03.293Z,31.50
2017-07-31T15:52:31.749Z,31.50
2017-07-31T15:55:00.278Z,31.50
2017-07-31T15:57:28.750Z,31.40
2017-07-31T15:59:57.229Z,31.20
2017-07-31T16:02:25.741Z,31.20
2017-07-31T16:04:54.237Z,31.10
2017-07-31T16:07:22.741Z,31.10
2017-07-31T16:09:51.251Z,31.10
2017-07-31T16:12:19.765Z,31.10
2017-07-31T16:14:48.273Z,30.90
2017-07-31T16:17:16.776Z,30.90
2017-07-31T16:19:45.256Z,30.90
2017-07-31T16:22:13.751Z,30.80
2017-07-31T16:24:42.356Z,30.70
2017-07-31T16:27:10.870Z,30.60
2017-07-31T16:29:39.629Z,30.50
2017-07-31T16:32:08.182Z,30.30
2017-07-31T16:34:36.723Z,30.00
2017-07-31T16:37:04.578Z,29.90
2017-07-31T16:39:32.430Z,29.60
2017-07-31T16:42:02.770Z,29.50
2017-07-31T16:44:48.602Z,29.40
2017-07-31T16:47:28.186Z,29.20
2017-07-31T16:49:56.768Z,29.10
2017-07-31T16:52:25.273Z,29.00
2017-07-31T16:54:53.800Z,28.70
2017-07-31T16:57:21.979Z,28.60
2017-07-31T16:59:49.794Z,28.50
2017-07-31T17:02:18.309Z,28.30
2017-07-31T17:04:46.837Z,28.10
2017-07-31T17:07:15.371Z,27.80
2017-07-31T17:09:43.885Z,27.70
2017-07-31T17:12:12.397Z,27.60
2017-07-31T17:14:40.899Z,27.40
2017-07-31T17:17:09.386Z,27.10
2017-07-31T17:19:37.946Z,26.80
2017-07-31T17:22:06.512Z,26.50
2017-07-31T17:24:35.013Z,26.30
2017-07-31T17:27:03.762Z,26.30
2017-07-31T17:29:32.274Z,26.10
2017-07-31T17:32:00.800Z,25.90
2017-07-31T17:34:29.382Z,25.60
2017-07-31T17:36:58.148Z,25.40
2017-07-31T17:39:26.348Z,25.30
2017-07-31T17:41:54.852Z,25.10
2017-07-31T17:44:23.349Z,24.90
2017-07-31T17:46:52.110Z,24.80
2017-07-31T17:49:20.694Z,24.60
2017-07-31T17:51:49.184Z,24.50
2017-07-31T17:54:17.690Z,24.40
2017-07-31T17:56:46.207Z,24.40
2017-07-31T17:59:14.716Z,24.30
2017-07-31T18:01:43.412Z,24.20
2017-07-31T18:04:11.945Z,24.10
2017-07-31T18:06:40.415Z,24.00
2017-07-31T18:09:08.931Z,23.80
2017-07-31T18:11:38.126Z,23.70
2017-07-31T18:14:06.445Z,23.50
2017-07-31T18:16:35.153Z,23.50
2017-07-31T18:19:03.522Z,23.30
2017-07-31T18:21:32.885Z,23.20
2017-07-31T18:24:01.386Z,23.10
2017-07-31T18:26:29.857Z,22.80
2017-07-31T18:28:58.344Z,22.70
2017-07-31T18:31:26.833Z,22.60
2017-07-31T18:33:55.429Z,22.50
2017-07-31T18:36:24.197Z,22.40
2017-07-31T18:38:52.923Z,22.40
2017-07-31T18:41:21.666Z,22.30
2017-07-31T18:43:50.426Z,22.20
2017-07-31T18:46:19.264Z,22.20
2017-07-31T18:48:48.023Z,22.00
2017-07-31T18:51:16.451Z,22.00
2017-07-31T18:53:45.205Z,21.90
2017-07-31T18:56:14.341Z,21.70
2017-07-31T18:58:43.316Z,21.60
2017-07-31T19:01:12.340Z,21.50
2017-07-31T19:03:41.439Z,21.60
2017-07-31T19:06:13.619Z,21.50
2017-07-31T19:08:44.646Z,21.40
2017-07-31T19:11:13.721Z,21.20
2017-07-31T19:13:42.232Z,21.10
2017-07-31T19:16:11.154Z,21.10
2017-07-31T19:18:39.887Z,21.10
2017-07-31T19:21:08.619Z,21.00
2017-07-31T19:23:37.340Z,20.90
2017-07-31T19:26:05.712Z,20.90
2017-07-31T19:28:34.205Z,20.80
2017-07-31T19:31:02.919Z,20.70
2017-07-31T19:33:31.472Z,20.70
2017-07-31T19:36:00.353Z,20.70
2017-07-31T19:38:29.093Z,20.60
2017-07-31T19:40:57.734Z,20.60
2017-07-31T19:43:26.252Z,20.40
2017-07-31T19:45:54.762Z,20.40
2017-07-31T19:48:23.330Z,20.30
2017-07-31T19:50:51.897Z,20.30
2017-07-31T19:53:20.601Z,20.30
2017-07-31T19:55:49.354Z,20.20
2017-07-31T19:58:18.323Z,20.20
2017-07-31T20:00:48.728Z,20.10
2017-07-31T20:03:17.475Z,20.10
2017-07-31T20:05:46.068Z,20.10
2017-07-31T20:08:14.601Z,20.10
2017-07-31T20:10:43.365Z,20.00
2017-07-31T20:13:12.103Z,19.90
2017-07-31T20:15:40.846Z,19.90
2017-07-31T20:18:09.457Z,19.80
2017-07-31T20:20:38.244Z,19.80
2017-07-31T20:23:06.983Z,19.80
2017-07-31T20:25:35.517Z,19.70
2017-07-31T20:28:04.753Z,19.70
2017-07-31T20:30:33.473Z,19.70
2017-07-31T20:33:02.034Z,19.60
2017-07-31T20:35:30.497Z,19.50
2017-07-31T20:37:58.925Z,19.50
2017-07-31T20:40:27.591Z,19.50
2017-07-31T20:42:56.163Z,19.40
2017-07-31T20:45:26.735Z,19.50
2017-07-31T20:47:56.121Z,19.40
2017-07-31T20:50:24.567Z,19.40
2017-07-31T20:52:53.853Z,19.40
2017-07-31T20:55:22.534Z,19.40
2017-07-31T20:57:50.829Z,19.30
2017-07-31T21:00:19.598Z,19.30
2017-07-31T21:02:48.421Z,19.30
2017-07-31T21:05:17.175Z,19.40
2017-07-31T21:07:45.931Z,19.30
2017-07-31T21:10:14.291Z,19.30
2017-07-31T21:12:43.073Z,19.20
2017-07-31T21:15:12.592Z,19.20
2017-07-31T21:17:41.482Z,19.10
2017-07-31T21:20:10.499Z,19.10
2017-07-31T21:22:39.223Z,19.00
2017-07-31T21:25:07.763Z,19.00
2017-07-31T21:27:36.540Z,19.00
2017-07-31T21:30:05.768Z,19.00
2017-07-31T21:32:34.558Z,19.00
2017-07-31T21:35:04.781Z,19.00
2017-07-31T21:37:33.566Z,19.10
2017-07-31T21:42:38.828Z,19.00
2017-07-31T21:45:09.112Z,18.90
2017-07-31T21:50:11.848Z,18.90
2017-07-31T21:55:12.823Z,18.80
2017-07-31T21:57:42.646Z,18.80
2017-07-31T22:00:13.308Z,18.70
2017-07-31T22:05:14.706Z,18.70
2017-07-31T22:10:17.723Z,18.80
2017-07-31T22:12:47.186Z,18.80
2017-07-31T22:28:31.076Z,18.60
2017-07-31T22:31:00.035Z,18.60
2017-07-31T22:38:39.714Z,18.40
2017-07-31T22:41:08.172Z,18.40
2017-07-31T22:43:36.608Z,18.40
2017-07-31T22:46:05.855Z,18.30
2017-07-31T22:48:34.315Z,18.30
2017-07-31T22:51:02.964Z,18.30
2017-07-31T22:53:31.652Z,18.30
2017-07-31T22:56:00.882Z,18.30
2017-07-31T22:58:29.341Z,18.20
2017-07-31T23:00:57.825Z,18.30
2017-07-31T23:03:26.322Z,18.30
2017-07-31T23:05:54.774Z,18.30
2017-07-31T23:08:23.314Z,18.30
2017-07-31T23:10:51.785Z,18.20
2017-07-31T23:13:20.260Z,18.20
2017-07-31T23:15:48.727Z,18.20
2017-07-31T23:18:17.181Z,18.20
2017-07-31T23:20:45.664Z,18.10
2017-07-31T23:23:14.358Z,18.10
2017-07-31T23:25:43.041Z,18.00
2017-07-31T23:28:11.505Z,18.00
2017-07-31T23:30:40.211Z,18.00
2017-07-31T23:33:08.874Z,18.00
2017-07-31T23:35:37.658Z,17.90
2017-07-31T23:38:06.227Z,18.00
2017-07-31T23:40:34.694Z,17.90
2017-07-31T23:43:03.150Z,17.80
2017-07-31T23:45:31.676Z,17.80
2017-07-31T23:48:00.113Z,17.80
2017-07-31T23:50:28.542Z,17.80
2017-07-31T23:52:57.038Z,17.80
2017-07-31T23:55:25.487Z,17.80
2017-07-31T23:57:53.938Z,17.80
